sensor_id;sensor_type;location;lat;lon;timestamp;P1;durP1;ratioP1;P2;durP2;ratioP2
8007;SDS011;4049;49.468;11.200;2024-02-21T00:01:37;16.03;;;4.50;;
8007;SDS011;4049;49.468;11.200;2024-02-21T00:04:04;9.57;;;3.93;;
8007;SDS011;4049;49.468;11.200;2024-02-21T00:06:31;10.83;;;4.63;;
8007;SDS011;4049;49.468;11.200;2024-02-21T00:08:59;10.73;;;4.60;;
8007;SDS011;4049;49.468;11.200;2024-02-21T00:11:25;9.30;;;4.40;;
8007;SDS011;4049;49.468;11.200;2024-02-21T00:13:54;10.20;;;5.33;;
8007;SDS011;4049;49.468;11.200;2024-02-21T00:16:21;12.57;;;3.90;;
8007;SDS011;4049;49.468;11.200;2024-02-21T00:18:48;10.70;;;3.97;;
8007;SDS011;4049;49.468;11.200;2024-02-21T00:21:15;8.57;;;4.00;;
8007;SDS011;4049;49.468;11.200;2024-02-21T00:23:43;8.83;;;3.87;;
8007;SDS011;4049;49.468;11.200;2024-02-21T00:26:10;10.50;;;4.33;;
8007;SDS011;4049;49.468;11.200;2024-02-21T00:28:37;9.33;;;3.77;;
8007;SDS011;4049;49.468;11.200;2024-02-21T00:31:06;10.00;;;3.70;;
8007;SDS011;4049;49.468;11.200;2024-02-21T00:33:32;11.97;;;4.23;;
8007;SDS011;4049;49.468;11.200;2024-02-21T00:35:59;8.93;;;3.70;;
8007;SDS011;4049;49.468;11.200;2024-02-21T00:38:26;7.70;;;3.70;;
8007;SDS011;4049;49.468;11.200;2024-02-21T00:40:53;9.77;;;4.27;;
8007;SDS011;4049;49.468;11.200;2024-02-21T00:43:20;9.23;;;3.93;;
8007;SDS011;4049;49.468;11.200;2024-02-21T00:45:48;8.00;;;4.20;;
8007;SDS011;4049;49.468;11.200;2024-02-21T00:48:17;5.20;;;3.27;;
8007;SDS011;4049;49.468;11.200;2024-02-21T00:50:44;12.33;;;3.70;;
8007;SDS011;4049;49.468;11.200;2024-02-21T00:53:10;11.07;;;3.87;;
8007;SDS011;4049;49.468;11.200;2024-02-21T00:55:37;8.33;;;4.07;;
8007;SDS011;4049;49.468;11.200;2024-02-21T00:58:05;8.90;;;3.73;;
8007;SDS011;4049;49.468;11.200;2024-02-21T01:00:32;6.50;;;3.70;;
8007;SDS011;4049;49.468;11.200;2024-02-21T01:02:59;9.37;;;3.90;;
8007;SDS011;4049;49.468;11.200;2024-02-21T01:05:27;11.07;;;4.33;;
8007;SDS011;4049;49.468;11.200;2024-02-21T01:07:54;8.70;;;3.70;;
8007;SDS011;4049;49.468;11.200;2024-02-21T01:10:21;9.03;;;4.77;;
8007;SDS011;4049;49.468;11.200;2024-02-21T01:12:49;9.10;;;4.30;;
8007;SDS011;4049;49.468;11.200;2024-02-21T01:15:15;13.63;;;4.40;;
8007;SDS011;4049;49.468;11.200;2024-02-21T01:17:42;13.80;;;4.90;;
8007;SDS011;4049;49.468;11.200;2024-02-21T01:20:09;11.60;;;3.90;;
8007;SDS011;4049;49.468;11.200;2024-02-21T01:22:38;12.53;;;4.30;;
8007;SDS011;4049;49.468;11.200;2024-02-21T01:25:05;9.20;;;4.20;;
8007;SDS011;4049;49.468;11.200;2024-02-21T01:27:33;13.13;;;3.97;;
8007;SDS011;4049;49.468;11.200;2024-02-21T01:30:00;10.10;;;3.70;;
8007;SDS011;4049;49.468;11.200;2024-02-21T01:32:30;11.60;;;3.80;;
8007;SDS011;4049;49.468;11.200;2024-02-21T01:34:57;10.00;;;4.13;;
8007;SDS011;4049;49.468;11.200;2024-02-21T01:37:24;10.23;;;4.33;;
8007;SDS011;4049;49.468;11.200;2024-02-21T01:39:52;9.60;;;3.90;;
8007;SDS011;4049;49.468;11.200;2024-02-21T01:42:19;13.07;;;4.03;;
8007;SDS011;4049;49.468;11.200;2024-02-21T01:44:46;7.37;;;3.93;;
8007;SDS011;4049;49.468;11.200;2024-02-21T01:47:13;10.73;;;4.00;;
8007;SDS011;4049;49.468;11.200;2024-02-21T01:49:40;8.13;;;3.83;;
8007;SDS011;4049;49.468;11.200;2024-02-21T01:52:07;11.43;;;3.80;;
8007;SDS011;4049;49.468;11.200;2024-02-21T01:54:36;7.60;;;3.67;;
8007;SDS011;4049;49.468;11.200;2024-02-21T01:57:04;11.60;;;3.83;;
8007;SDS011;4049;49.468;11.200;2024-02-21T01:59:31;12.53;;;4.13;;
8007;SDS011;4049;49.468;11.200;2024-02-21T02:01:58;8.67;;;3.63;;
8007;SDS011;4049;49.468;11.200;2024-02-21T02:04:26;10.63;;;3.77;;
8007;SDS011;4049;49.468;11.200;2024-02-21T02:06:54;11.60;;;3.83;;
8007;SDS011;4049;49.468;11.200;2024-02-21T02:09:21;9.60;;;3.40;;
8007;SDS011;4049;49.468;11.200;2024-02-21T02:11:48;8.40;;;4.00;;
8007;SDS011;4049;49.468;11.200;2024-02-21T02:14:16;10.30;;;3.90;;
8007;SDS011;4049;49.468;11.200;2024-02-21T02:16:45;8.87;;;4.23;;
8007;SDS011;4049;49.468;11.200;2024-02-21T02:19:13;10.03;;;4.10;;
8007;SDS011;4049;49.468;11.200;2024-02-21T02:21:42;11.60;;;4.00;;
8007;SDS011;4049;49.468;11.200;2024-02-21T02:24:13;11.00;;;4.10;;
8007;SDS011;4049;49.468;11.200;2024-02-21T02:26:41;7.43;;;3.67;;
8007;SDS011;4049;49.468;11.200;2024-02-21T02:29:08;8.73;;;3.60;;
8007;SDS011;4049;49.468;11.200;2024-02-21T02:31:35;9.87;;;3.87;;
8007;SDS011;4049;49.468;11.200;2024-02-21T02:34:02;10.50;;;3.90;;
8007;SDS011;4049;49.468;11.200;2024-02-21T02:36:30;11.53;;;4.30;;
8007;SDS011;4049;49.468;11.200;2024-02-21T02:38:58;8.60;;;3.73;;
8007;SDS011;4049;49.468;11.200;2024-02-21T02:41:26;8.57;;;3.50;;
8007;SDS011;4049;49.468;11.200;2024-02-21T02:43:53;8.97;;;3.33;;
8007;SDS011;4049;49.468;11.200;2024-02-21T02:46:20;9.47;;;3.83;;
8007;SDS011;4049;49.468;11.200;2024-02-21T02:48:47;7.70;;;4.00;;
8007;SDS011;4049;49.468;11.200;2024-02-21T02:51:14;10.83;;;3.43;;
8007;SDS011;4049;49.468;11.200;2024-02-21T02:53:41;10.57;;;3.70;;
8007;SDS011;4049;49.468;11.200;2024-02-21T02:56:13;7.27;;;3.70;;
8007;SDS011;4049;49.468;11.200;2024-02-21T02:58:42;7.87;;;3.40;;
8007;SDS011;4049;49.468;11.200;2024-02-21T03:01:08;8.97;;;3.80;;
8007;SDS011;4049;49.468;11.200;2024-02-21T03:03:35;9.33;;;3.43;;
8007;SDS011;4049;49.468;11.200;2024-02-21T03:06:02;6.50;;;3.57;;
8007;SDS011;4049;49.468;11.200;2024-02-21T03:08:29;11.13;;;3.50;;
8007;SDS011;4049;49.468;11.200;2024-02-21T03:10:57;11.63;;;4.10;;
8007;SDS011;4049;49.468;11.200;2024-02-21T03:13:25;10.23;;;4.37;;
8007;SDS011;4049;49.468;11.200;2024-02-21T03:15:53;9.07;;;3.47;;
8007;SDS011;4049;49.468;11.200;2024-02-21T03:18:20;11.60;;;3.63;;
8007;SDS011;4049;49.468;11.200;2024-02-21T03:20:47;10.30;;;3.77;;
8007;SDS011;4049;49.468;11.200;2024-02-21T03:23:14;8.20;;;3.73;;
8007;SDS011;4049;49.468;11.200;2024-02-21T03:25:40;12.63;;;3.93;;
8007;SDS011;4049;49.468;11.200;2024-02-21T03:28:07;10.77;;;3.77;;
8007;SDS011;4049;49.468;11.200;2024-02-21T03:30:34;8.70;;;3.70;;
8007;SDS011;4049;49.468;11.200;2024-02-21T03:33:03;5.03;;;3.27;;
8007;SDS011;4049;49.468;11.200;2024-02-21T03:35:30;9.27;;;4.20;;
8007;SDS011;4049;49.468;11.200;2024-02-21T03:37:57;15.10;;;4.40;;
8007;SDS011;4049;49.468;11.200;2024-02-21T03:40:23;10.27;;;4.17;;
8007;SDS011;4049;49.468;11.200;2024-02-21T03:42:50;9.63;;;3.90;;
8007;SDS011;4049;49.468;11.200;2024-02-21T03:45:17;6.27;;;2.97;;
8007;SDS011;4049;49.468;11.200;2024-02-21T03:47:44;9.40;;;3.50;;
8007;SDS011;4049;49.468;11.200;2024-02-21T03:50:12;9.37;;;3.87;;
8007;SDS011;4049;49.468;11.200;2024-02-21T03:52:39;12.10;;;3.93;;
8007;SDS011;4049;49.468;11.200;2024-02-21T03:55:07;10.10;;;3.83;;
8007;SDS011;4049;49.468;11.200;2024-02-21T03:57:34;8.73;;;3.73;;
8007;SDS011;4049;49.468;11.200;2024-02-21T04:00:01;10.67;;;3.77;;
8007;SDS011;4049;49.468;11.200;2024-02-21T04:02:28;11.63;;;3.80;;
8007;SDS011;4049;49.468;11.200;2024-02-21T04:04:55;9.50;;;4.30;;
8007;SDS011;4049;49.468;11.200;2024-02-21T04:07:24;8.23;;;3.40;;
8007;SDS011;4049;49.468;11.200;2024-02-21T04:09:50;9.50;;;4.20;;
8007;SDS011;4049;49.468;11.200;2024-02-21T04:12:18;9.77;;;4.33;;
8007;SDS011;4049;49.468;11.200;2024-02-21T04:14:44;9.93;;;3.83;;
8007;SDS011;4049;49.468;11.200;2024-02-21T04:17:11;9.87;;;3.80;;
8007;SDS011;4049;49.468;11.200;2024-02-21T04:19:37;12.00;;;4.13;;
8007;SDS011;4049;49.468;11.200;2024-02-21T04:22:04;8.47;;;3.90;;
8007;SDS011;4049;49.468;11.200;2024-02-21T04:24:32;7.80;;;3.60;;
8007;SDS011;4049;49.468;11.200;2024-02-21T04:26:59;6.37;;;3.27;;
8007;SDS011;4049;49.468;11.200;2024-02-21T04:29:26;9.17;;;3.80;;
8007;SDS011;4049;49.468;11.200;2024-02-21T04:31:53;8.97;;;3.87;;
8007;SDS011;4049;49.468;11.200;2024-02-21T04:34:20;7.67;;;3.80;;
8007;SDS011;4049;49.468;11.200;2024-02-21T04:36:47;9.73;;;4.50;;
8007;SDS011;4049;49.468;11.200;2024-02-21T04:39:14;8.67;;;3.87;;
8007;SDS011;4049;49.468;11.200;2024-02-21T04:41:42;13.07;;;4.87;;
8007;SDS011;4049;49.468;11.200;2024-02-21T04:44:09;12.50;;;4.40;;
8007;SDS011;4049;49.468;11.200;2024-02-21T04:46:36;13.67;;;4.00;;
8007;SDS011;4049;49.468;11.200;2024-02-21T04:49:03;7.50;;;3.77;;
8007;SDS011;4049;49.468;11.200;2024-02-21T04:51:30;11.37;;;4.20;;
8007;SDS011;4049;49.468;11.200;2024-02-21T04:53:57;11.53;;;4.00;;
8007;SDS011;4049;49.468;11.200;2024-02-21T04:56:23;12.00;;;4.37;;
8007;SDS011;4049;49.468;11.200;2024-02-21T04:58:52;8.03;;;3.50;;
8007;SDS011;4049;49.468;11.200;2024-02-21T05:01:18;8.07;;;3.97;;
8007;SDS011;4049;49.468;11.200;2024-02-21T05:03:45;9.80;;;4.33;;
8007;SDS011;4049;49.468;11.200;2024-02-21T05:06:12;9.23;;;4.23;;
8007;SDS011;4049;49.468;11.200;2024-02-21T05:08:39;8.47;;;4.17;;
8007;SDS011;4049;49.468;11.200;2024-02-21T05:11:06;9.10;;;4.07;;
8007;SDS011;4049;49.468;11.200;2024-02-21T05:13:33;13.00;;;4.27;;
8007;SDS011;4049;49.468;11.200;2024-02-21T05:16:01;9.67;;;4.37;;
8007;SDS011;4049;49.468;11.200;2024-02-21T05:18:28;12.00;;;4.00;;
8007;SDS011;4049;49.468;11.200;2024-02-21T05:20:55;8.43;;;3.63;;
8007;SDS011;4049;49.468;11.200;2024-02-21T05:23:22;11.50;;;4.23;;
8007;SDS011;4049;49.468;11.200;2024-02-21T05:25:49;10.70;;;4.37;;
8007;SDS011;4049;49.468;11.200;2024-02-21T05:28:16;11.73;;;4.20;;
8007;SDS011;4049;49.468;11.200;2024-02-21T05:30:43;6.50;;;3.33;;
8007;SDS011;4049;49.468;11.200;2024-02-21T05:33:11;9.13;;;3.90;;
8007;SDS011;4049;49.468;11.200;2024-02-21T05:35:46;11.80;;;3.80;;
8007;SDS011;4049;49.468;11.200;2024-02-21T05:38:13;11.70;;;4.40;;
8007;SDS011;4049;49.468;11.200;2024-02-21T05:40:40;7.83;;;3.80;;
8007;SDS011;4049;49.468;11.200;2024-02-21T05:43:07;13.50;;;4.30;;
8007;SDS011;4049;49.468;11.200;2024-02-21T05:45:34;6.10;;;3.60;;
8007;SDS011;4049;49.468;11.200;2024-02-21T05:48:01;13.47;;;4.23;;
8007;SDS011;4049;49.468;11.200;2024-02-21T05:50:30;13.67;;;4.60;;
8007;SDS011;4049;49.468;11.200;2024-02-21T05:52:57;10.60;;;3.87;;
8007;SDS011;4049;49.468;11.200;2024-02-21T05:55:25;7.17;;;3.53;;
8007;SDS011;4049;49.468;11.200;2024-02-21T05:57:53;11.47;;;4.10;;
8007;SDS011;4049;49.468;11.200;2024-02-21T06:00:20;10.30;;;4.43;;
8007;SDS011;4049;49.468;11.200;2024-02-21T06:02:47;8.07;;;3.90;;
8007;SDS011;4049;49.468;11.200;2024-02-21T06:05:14;8.13;;;3.80;;
8007;SDS011;4049;49.468;11.200;2024-02-21T06:07:43;9.20;;;4.40;;
8007;SDS011;4049;49.468;11.200;2024-02-21T06:10:09;14.40;;;5.40;;
8007;SDS011;4049;49.468;11.200;2024-02-21T06:12:36;12.50;;;5.20;;
8007;SDS011;4049;49.468;11.200;2024-02-21T06:15:03;11.37;;;5.10;;
8007;SDS011;4049;49.468;11.200;2024-02-21T06:17:31;15.03;;;4.87;;
8007;SDS011;4049;49.468;11.200;2024-02-21T06:19:58;13.70;;;5.77;;
8007;SDS011;4049;49.468;11.200;2024-02-21T06:22:25;12.57;;;5.10;;
8007;SDS011;4049;49.468;11.200;2024-02-21T06:24:53;8.50;;;4.17;;
8007;SDS011;4049;49.468;11.200;2024-02-21T06:27:20;14.37;;;5.03;;
8007;SDS011;4049;49.468;11.200;2024-02-21T06:29:47;8.17;;;4.10;;
8007;SDS011;4049;49.468;11.200;2024-02-21T06:32:13;9.53;;;4.80;;
8007;SDS011;4049;49.468;11.200;2024-02-21T06:34:40;11.80;;;4.10;;
8007;SDS011;4049;49.468;11.200;2024-02-21T06:37:07;8.87;;;3.50;;
8007;SDS011;4049;49.468;11.200;2024-02-21T06:39:34;9.77;;;4.50;;
8007;SDS011;4049;49.468;11.200;2024-02-21T06:42:04;7.10;;;4.07;;
8007;SDS011;4049;49.468;11.200;2024-02-21T06:44:31;10.07;;;4.37;;
8007;SDS011;4049;49.468;11.200;2024-02-21T06:47:01;8.93;;;4.13;;
8007;SDS011;4049;49.468;11.200;2024-02-21T06:49:28;10.97;;;4.33;;
8007;SDS011;4049;49.468;11.200;2024-02-21T06:51:55;8.37;;;3.47;;
8007;SDS011;4049;49.468;11.200;2024-02-21T06:54:22;10.23;;;3.80;;
8007;SDS011;4049;49.468;11.200;2024-02-21T06:56:49;11.63;;;4.70;;
8007;SDS011;4049;49.468;11.200;2024-02-21T06:59:17;9.83;;;3.93;;
8007;SDS011;4049;49.468;11.200;2024-02-21T07:01:44;11.03;;;4.40;;
8007;SDS011;4049;49.468;11.200;2024-02-21T07:04:12;12.37;;;4.73;;
8007;SDS011;4049;49.468;11.200;2024-02-21T07:06:38;11.87;;;4.13;;
8007;SDS011;4049;49.468;11.200;2024-02-21T07:09:05;11.80;;;4.50;;
8007;SDS011;4049;49.468;11.200;2024-02-21T07:11:32;9.93;;;4.27;;
8007;SDS011;4049;49.468;11.200;2024-02-21T07:13:59;12.53;;;4.83;;
8007;SDS011;4049;49.468;11.200;2024-02-21T07:16:27;7.60;;;4.10;;
8007;SDS011;4049;49.468;11.200;2024-02-21T07:18:54;7.93;;;3.93;;
8007;SDS011;4049;49.468;11.200;2024-02-21T07:21:21;11.63;;;4.90;;
8007;SDS011;4049;49.468;11.200;2024-02-21T07:23:48;6.87;;;4.10;;
8007;SDS011;4049;49.468;11.200;2024-02-21T07:26:16;9.90;;;4.43;;
8007;SDS011;4049;49.468;11.200;2024-02-21T07:28:43;9.37;;;4.10;;
8007;SDS011;4049;49.468;11.200;2024-02-21T07:31:09;10.70;;;5.00;;
8007;SDS011;4049;49.468;11.200;2024-02-21T07:33:38;12.37;;;4.90;;
8007;SDS011;4049;49.468;11.200;2024-02-21T07:36:05;14.13;;;4.17;;
8007;SDS011;4049;49.468;11.200;2024-02-21T07:38:33;8.93;;;4.23;;
8007;SDS011;4049;49.468;11.200;2024-02-21T07:41:00;10.03;;;4.10;;
8007;SDS011;4049;49.468;11.200;2024-02-21T07:43:27;13.47;;;4.40;;
8007;SDS011;4049;49.468;11.200;2024-02-21T07:45:54;8.13;;;4.40;;
8007;SDS011;4049;49.468;11.200;2024-02-21T07:48:21;7.77;;;3.93;;
8007;SDS011;4049;49.468;11.200;2024-02-21T07:50:51;11.30;;;4.00;;
8007;SDS011;4049;49.468;11.200;2024-02-21T07:53:19;11.40;;;3.60;;
8007;SDS011;4049;49.468;11.200;2024-02-21T07:55:46;8.57;;;4.20;;
8007;SDS011;4049;49.468;11.200;2024-02-21T07:58:13;12.73;;;4.50;;
8007;SDS011;4049;49.468;11.200;2024-02-21T08:00:40;9.13;;;4.13;;
8007;SDS011;4049;49.468;11.200;2024-02-21T08:03:06;10.53;;;4.67;;
8007;SDS011;4049;49.468;11.200;2024-02-21T08:05:34;8.73;;;4.10;;
8007;SDS011;4049;49.468;11.200;2024-02-21T08:08:02;10.23;;;3.87;;
8007;SDS011;4049;49.468;11.200;2024-02-21T08:10:29;11.77;;;3.90;;
8007;SDS011;4049;49.468;11.200;2024-02-21T08:12:56;7.87;;;4.20;;
8007;SDS011;4049;49.468;11.200;2024-02-21T08:15:23;11.97;;;4.07;;
8007;SDS011;4049;49.468;11.200;2024-02-21T08:17:53;9.67;;;3.90;;
8007;SDS011;4049;49.468;11.200;2024-02-21T08:20:24;10.53;;;3.57;;
8007;SDS011;4049;49.468;11.200;2024-02-21T08:22:50;11.37;;;3.70;;
8007;SDS011;4049;49.468;11.200;2024-02-21T08:25:19;9.87;;;3.63;;
8007;SDS011;4049;49.468;11.200;2024-02-21T08:27:45;9.80;;;3.80;;
8007;SDS011;4049;49.468;11.200;2024-02-21T08:30:13;8.73;;;3.73;;
8007;SDS011;4049;49.468;11.200;2024-02-21T08:32:40;7.97;;;3.77;;
8007;SDS011;4049;49.468;11.200;2024-02-21T08:35:07;11.33;;;3.57;;
8007;SDS011;4049;49.468;11.200;2024-02-21T08:37:34;9.40;;;3.67;;
8007;SDS011;4049;49.468;11.200;2024-02-21T08:40:01;8.20;;;3.30;;
8007;SDS011;4049;49.468;11.200;2024-02-21T08:42:34;9.03;;;3.57;;
8007;SDS011;4049;49.468;11.200;2024-02-21T08:45:01;11.90;;;4.27;;
8007;SDS011;4049;49.468;11.200;2024-02-21T08:47:29;11.90;;;4.23;;
8007;SDS011;4049;49.468;11.200;2024-02-21T08:49:55;10.90;;;4.00;;
8007;SDS011;4049;49.468;11.200;2024-02-21T08:52:23;9.00;;;3.30;;
8007;SDS011;4049;49.468;11.200;2024-02-21T08:54:50;10.43;;;3.87;;
8007;SDS011;4049;49.468;11.200;2024-02-21T08:57:18;9.27;;;4.03;;
8007;SDS011;4049;49.468;11.200;2024-02-21T08:59:46;9.97;;;3.70;;
8007;SDS011;4049;49.468;11.200;2024-02-21T09:02:13;6.87;;;3.17;;
8007;SDS011;4049;49.468;11.200;2024-02-21T09:04:41;7.50;;;3.07;;
8007;SDS011;4049;49.468;11.200;2024-02-21T09:07:08;10.80;;;3.43;;
8007;SDS011;4049;49.468;11.200;2024-02-21T09:09:35;10.03;;;3.40;;
8007;SDS011;4049;49.468;11.200;2024-02-21T09:12:03;9.30;;;3.47;;
8007;SDS011;4049;49.468;11.200;2024-02-21T09:14:31;7.23;;;3.17;;
8007;SDS011;4049;49.468;11.200;2024-02-21T09:17:00;9.10;;;2.90;;
8007;SDS011;4049;49.468;11.200;2024-02-21T09:19:26;6.73;;;3.10;;
8007;SDS011;4049;49.468;11.200;2024-02-21T09:21:53;8.80;;;4.43;;
8007;SDS011;4049;49.468;11.200;2024-02-21T09:24:20;5.90;;;3.00;;
8007;SDS011;4049;49.468;11.200;2024-02-21T09:26:47;8.47;;;2.83;;
8007;SDS011;4049;49.468;11.200;2024-02-21T09:29:14;10.13;;;3.47;;
8007;SDS011;4049;49.468;11.200;2024-02-21T09:31:41;5.83;;;2.80;;
8007;SDS011;4049;49.468;11.200;2024-02-21T09:34:09;9.17;;;2.90;;
8007;SDS011;4049;49.468;11.200;2024-02-21T09:36:37;9.63;;;3.30;;
8007;SDS011;4049;49.468;11.200;2024-02-21T09:39:05;6.57;;;3.37;;
8007;SDS011;4049;49.468;11.200;2024-02-21T09:41:32;8.27;;;3.50;;
8007;SDS011;4049;49.468;11.200;2024-02-21T09:44:04;5.53;;;2.73;;
8007;SDS011;4049;49.468;11.200;2024-02-21T09:46:36;7.93;;;3.37;;
8007;SDS011;4049;49.468;11.200;2024-02-21T09:49:13;8.47;;;3.40;;
8007;SDS011;4049;49.468;11.200;2024-02-21T09:51:51;8.03;;;2.80;;
8007;SDS011;4049;49.468;11.200;2024-02-21T09:54:21;4.90;;;2.80;;
8007;SDS011;4049;49.468;11.200;2024-02-21T09:56:48;7.47;;;3.80;;
8007;SDS011;4049;49.468;11.200;2024-02-21T09:59:15;8.23;;;3.33;;
8007;SDS011;4049;49.468;11.200;2024-02-21T10:01:42;5.80;;;3.00;;
8007;SDS011;4049;49.468;11.200;2024-02-21T10:04:13;9.80;;;3.53;;
8007;SDS011;4049;49.468;11.200;2024-02-21T10:06:40;4.07;;;2.60;;
8007;SDS011;4049;49.468;11.200;2024-02-21T10:09:08;9.07;;;3.40;;
8007;SDS011;4049;49.468;11.200;2024-02-21T10:11:35;6.40;;;3.17;;
8007;SDS011;4049;49.468;11.200;2024-02-21T10:14:05;9.63;;;3.00;;
8007;SDS011;4049;49.468;11.200;2024-02-21T10:16:32;7.27;;;2.77;;
8007;SDS011;4049;49.468;11.200;2024-02-21T10:18:59;7.53;;;3.20;;
8007;SDS011;4049;49.468;11.200;2024-02-21T10:21:29;5.63;;;3.23;;
8007;SDS011;4049;49.468;11.200;2024-02-21T10:23:56;5.87;;;2.37;;
8007;SDS011;4049;49.468;11.200;2024-02-21T10:26:23;5.57;;;2.50;;
8007;SDS011;4049;49.468;11.200;2024-02-21T10:28:50;4.97;;;2.50;;
8007;SDS011;4049;49.468;11.200;2024-02-21T10:31:22;4.77;;;2.57;;
8007;SDS011;4049;49.468;11.200;2024-02-21T10:33:53;4.70;;;2.47;;
8007;SDS011;4049;49.468;11.200;2024-02-21T10:36:21;10.13;;;3.63;;
8007;SDS011;4049;49.468;11.200;2024-02-21T10:38:50;8.13;;;3.20;;
8007;SDS011;4049;49.468;11.200;2024-02-21T10:41:18;7.87;;;2.73;;
8007;SDS011;4049;49.468;11.200;2024-02-21T10:43:46;5.40;;;2.37;;
8007;SDS011;4049;49.468;11.200;2024-02-21T10:46:18;9.17;;;2.77;;
8007;SDS011;4049;49.468;11.200;2024-02-21T10:48:46;4.77;;;2.53;;
8007;SDS011;4049;49.468;11.200;2024-02-21T10:51:14;10.10;;;2.73;;
8007;SDS011;4049;49.468;11.200;2024-02-21T10:53:44;5.23;;;2.43;;
8007;SDS011;4049;49.468;11.200;2024-02-21T10:56:20;6.70;;;2.87;;
8007;SDS011;4049;49.468;11.200;2024-02-21T10:58:50;7.30;;;2.70;;
8007;SDS011;4049;49.468;11.200;2024-02-21T11:01:17;3.37;;;2.13;;
8007;SDS011;4049;49.468;11.200;2024-02-21T11:03:45;7.53;;;2.53;;
8007;SDS011;4049;49.468;11.200;2024-02-21T11:06:14;8.70;;;2.70;;
8007;SDS011;4049;49.468;11.200;2024-02-21T11:08:42;8.67;;;2.77;;
8007;SDS011;4049;49.468;11.200;2024-02-21T11:11:11;5.63;;;2.83;;
8007;SDS011;4049;49.468;11.200;2024-02-21T11:13:43;7.23;;;2.30;;
8007;SDS011;4049;49.468;11.200;2024-02-21T11:16:11;6.30;;;2.60;;
8007;SDS011;4049;49.468;11.200;2024-02-21T11:18:47;9.77;;;2.53;;
8007;SDS011;4049;49.468;11.200;2024-02-21T11:21:14;4.90;;;2.50;;
8007;SDS011;4049;49.468;11.200;2024-02-21T11:23:41;5.50;;;2.40;;
8007;SDS011;4049;49.468;11.200;2024-02-21T11:26:08;5.03;;;2.40;;
8007;SDS011;4049;49.468;11.200;2024-02-21T11:28:36;5.80;;;2.43;;
8007;SDS011;4049;49.468;11.200;2024-02-21T11:31:08;5.93;;;2.37;;
8007;SDS011;4049;49.468;11.200;2024-02-21T11:33:35;6.07;;;3.20;;
8007;SDS011;4049;49.468;11.200;2024-02-21T11:36:05;5.17;;;2.47;;
8007;SDS011;4049;49.468;11.200;2024-02-21T11:38:32;5.30;;;2.33;;
8007;SDS011;4049;49.468;11.200;2024-02-21T11:41:02;3.17;;;1.90;;
8007;SDS011;4049;49.468;11.200;2024-02-21T11:43:34;5.17;;;2.50;;
8007;SDS011;4049;49.468;11.200;2024-02-21T11:46:01;4.83;;;2.23;;
8007;SDS011;4049;49.468;11.200;2024-02-21T11:48:31;5.80;;;2.50;;
8007;SDS011;4049;49.468;11.200;2024-02-21T11:50:58;4.70;;;2.43;;
8007;SDS011;4049;49.468;11.200;2024-02-21T11:53:25;6.87;;;2.33;;
8007;SDS011;4049;49.468;11.200;2024-02-21T11:55:55;4.80;;;2.30;;
8007;SDS011;4049;49.468;11.200;2024-02-21T11:58:22;3.97;;;2.03;;
8007;SDS011;4049;49.468;11.200;2024-02-21T12:00:50;3.33;;;2.00;;
8007;SDS011;4049;49.468;11.200;2024-02-21T12:03:18;6.47;;;2.20;;
8007;SDS011;4049;49.468;11.200;2024-02-21T12:05:46;3.40;;;2.03;;
8007;SDS011;4049;49.468;11.200;2024-02-21T12:08:13;4.43;;;2.00;;
8007;SDS011;4049;49.468;11.200;2024-02-21T12:10:41;4.33;;;1.93;;
8007;SDS011;4049;49.468;11.200;2024-02-21T12:13:09;5.07;;;2.13;;
8007;SDS011;4049;49.468;11.200;2024-02-21T12:15:38;5.77;;;2.20;;
8007;SDS011;4049;49.468;11.200;2024-02-21T12:18:05;4.23;;;2.00;;
8007;SDS011;4049;49.468;11.200;2024-02-21T12:20:32;7.77;;;2.30;;
8007;SDS011;4049;49.468;11.200;2024-02-21T12:23:02;5.03;;;2.00;;
8007;SDS011;4049;49.468;11.200;2024-02-21T12:25:29;5.90;;;2.53;;
8007;SDS011;4049;49.468;11.200;2024-02-21T12:27:56;7.13;;;2.00;;
8007;SDS011;4049;49.468;11.200;2024-02-21T12:30:25;5.83;;;2.33;;
8007;SDS011;4049;49.468;11.200;2024-02-21T12:32:51;5.80;;;2.13;;
8007;SDS011;4049;49.468;11.200;2024-02-21T12:35:18;6.43;;;2.47;;
8007;SDS011;4049;49.468;11.200;2024-02-21T12:37:45;5.53;;;2.17;;
8007;SDS011;4049;49.468;11.200;2024-02-21T12:40:13;5.20;;;1.93;;
8007;SDS011;4049;49.468;11.200;2024-02-21T12:42:40;3.90;;;1.87;;
8007;SDS011;4049;49.468;11.200;2024-02-21T12:45:07;5.00;;;2.43;;
8007;SDS011;4049;49.468;11.200;2024-02-21T12:47:35;4.00;;;2.10;;
8007;SDS011;4049;49.468;11.200;2024-02-21T12:50:02;4.17;;;2.17;;
8007;SDS011;4049;49.468;11.200;2024-02-21T12:52:31;6.53;;;2.53;;
8007;SDS011;4049;49.468;11.200;2024-02-21T12:54:58;5.03;;;1.80;;
8007;SDS011;4049;49.468;11.200;2024-02-21T12:57:26;6.03;;;2.00;;
8007;SDS011;4049;49.468;11.200;2024-02-21T12:59:53;6.53;;;2.20;;
8007;SDS011;4049;49.468;11.200;2024-02-21T13:02:20;3.63;;;1.83;;
8007;SDS011;4049;49.468;11.200;2024-02-21T13:04:47;4.23;;;2.00;;
8007;SDS011;4049;49.468;11.200;2024-02-21T13:07:14;6.03;;;2.00;;
8007;SDS011;4049;49.468;11.200;2024-02-21T13:09:40;3.80;;;2.20;;
8007;SDS011;4049;49.468;11.200;2024-02-21T13:12:07;7.40;;;2.13;;
8007;SDS011;4049;49.468;11.200;2024-02-21T13:14:36;4.93;;;1.83;;
8007;SDS011;4049;49.468;11.200;2024-02-21T13:17:04;5.33;;;1.90;;
8007;SDS011;4049;49.468;11.200;2024-02-21T13:19:31;5.87;;;2.33;;
8007;SDS011;4049;49.468;11.200;2024-02-21T13:21:58;4.13;;;1.80;;
8007;SDS011;4049;49.468;11.200;2024-02-21T13:24:24;5.47;;;2.17;;
8007;SDS011;4049;49.468;11.200;2024-02-21T13:26:51;6.17;;;2.20;;
8007;SDS011;4049;49.468;11.200;2024-02-21T13:29:20;3.83;;;2.20;;
8007;SDS011;4049;49.468;11.200;2024-02-21T13:31:48;5.43;;;2.10;;
8007;SDS011;4049;49.468;11.200;2024-02-21T13:34:15;6.27;;;2.47;;
8007;SDS011;4049;49.468;11.200;2024-02-21T13:36:43;8.00;;;3.30;;
8007;SDS011;4049;49.468;11.200;2024-02-21T13:39:10;4.03;;;1.80;;
8007;SDS011;4049;49.468;11.200;2024-02-21T13:41:40;4.37;;;2.27;;
8007;SDS011;4049;49.468;11.200;2024-02-21T13:44:08;4.57;;;2.10;;
8007;SDS011;4049;49.468;11.200;2024-02-21T13:46:35;5.27;;;2.20;;
8007;SDS011;4049;49.468;11.200;2024-02-21T13:49:04;4.50;;;2.07;;
8007;SDS011;4049;49.468;11.200;2024-02-21T13:51:32;5.63;;;2.30;;
8007;SDS011;4049;49.468;11.200;2024-02-21T13:54:01;4.00;;;2.10;;
8007;SDS011;4049;49.468;11.200;2024-02-21T13:56:28;4.33;;;1.90;;
8007;SDS011;4049;49.468;11.200;2024-02-21T13:58:55;3.00;;;1.83;;
8007;SDS011;4049;49.468;11.200;2024-02-21T14:01:24;5.47;;;2.03;;
8007;SDS011;4049;49.468;11.200;2024-02-21T14:03:53;2.40;;;1.63;;
8007;SDS011;4049;49.468;11.200;2024-02-21T14:06:21;4.80;;;1.83;;
8007;SDS011;4049;49.468;11.200;2024-02-21T14:08:48;6.43;;;2.80;;
8007;SDS011;4049;49.468;11.200;2024-02-21T14:11:15;5.43;;;1.63;;
8007;SDS011;4049;49.468;11.200;2024-02-21T14:13:42;1.97;;;1.60;;
8007;SDS011;4049;49.468;11.200;2024-02-21T14:16:09;3.67;;;1.57;;
8007;SDS011;4049;49.468;11.200;2024-02-21T14:18:38;6.40;;;2.13;;
8007;SDS011;4049;49.468;11.200;2024-02-21T14:21:06;4.77;;;1.77;;
8007;SDS011;4049;49.468;11.200;2024-02-21T14:23:37;3.50;;;1.60;;
8007;SDS011;4049;49.468;11.200;2024-02-21T14:26:03;5.77;;;2.00;;
8007;SDS011;4049;49.468;11.200;2024-02-21T14:28:31;3.57;;;1.70;;
8007;SDS011;4049;49.468;11.200;2024-02-21T14:30:58;3.37;;;1.73;;
8007;SDS011;4049;49.468;11.200;2024-02-21T14:33:25;3.47;;;2.20;;
8007;SDS011;4049;49.468;11.200;2024-02-21T14:35:52;3.10;;;1.80;;
8007;SDS011;4049;49.468;11.200;2024-02-21T14:38:19;7.37;;;1.93;;
8007;SDS011;4049;49.468;11.200;2024-02-21T14:40:47;4.03;;;2.10;;
8007;SDS011;4049;49.468;11.200;2024-02-21T14:43:14;5.23;;;2.07;;
8007;SDS011;4049;49.468;11.200;2024-02-21T14:45:42;3.40;;;1.80;;
8007;SDS011;4049;49.468;11.200;2024-02-21T14:48:12;4.80;;;1.90;;
8007;SDS011;4049;49.468;11.200;2024-02-21T14:50:39;2.87;;;1.73;;
8007;SDS011;4049;49.468;11.200;2024-02-21T14:53:06;4.30;;;1.80;;
8007;SDS011;4049;49.468;11.200;2024-02-21T14:55:34;4.43;;;1.73;;
8007;SDS011;4049;49.468;11.200;2024-02-21T14:58:02;3.50;;;1.47;;
8007;SDS011;4049;49.468;11.200;2024-02-21T15:00:29;3.13;;;1.77;;